createdAt,value
2022-09-26T00:01:10.316Z,3.97
2022-09-26T00:04:11.661Z,3.80
2022-09-26T00:07:38.201Z,4.13
2022-09-26T00:10:44.395Z,3.77
2022-09-26T00:13:48.907Z,3.90
2022-09-26T00:20:23.719Z,3.60
2022-09-26T00:23:05.941Z,4.20
2022-09-26T00:26:14.126Z,4.37
2022-09-26T00:29:09.827Z,4.20
2022-09-26T00:31:55.267Z,4.13
2022-09-26T00:39:31.566Z,4.33
2022-09-26T00:42:26.871Z,4.23
2022-09-26T00:50:25.836Z,4.17
2022-09-26T00:56:44.493Z,4.17
2022-09-26T00:59:44.125Z,4.30
2022-09-26T01:02:28.145Z,4.00
2022-09-26T01:05:07.937Z,4.90
2022-09-26T01:11:49.131Z,4.20
2022-09-26T01:14:30.392Z,3.93
2022-09-26T01:21:12.947Z,4.10
2022-09-26T01:24:32.942Z,4.53
2022-09-26T01:27:53.984Z,4.23
2022-09-26T01:30:46.791Z,4.20
2022-09-26T01:37:32.415Z,4.27
2022-09-26T01:45:26.119Z,4.30
2022-09-26T01:48:25.184Z,5.03
2022-09-26T01:55:08.201Z,5.00
2022-09-26T01:58:44.455Z,4.13
2022-09-26T02:01:44.648Z,5.13
2022-09-26T02:08:17.986Z,4.37
2022-09-26T02:11:45.358Z,4.40
2022-09-26T02:15:06.956Z,4.60
2022-09-26T02:17:57.266Z,4.00
2022-09-26T02:21:16.830Z,4.57
2022-09-26T02:26:42.469Z,4.53
2022-09-26T02:46:37.710Z,5.77
2022-09-26T02:49:57.266Z,6.00
2022-09-26T02:53:19.513Z,6.40
2022-09-26T02:57:01.340Z,5.40
2022-09-26T03:07:08.150Z,6.60
2022-09-26T03:09:59.315Z,6.37
2022-09-26T03:13:01.203Z,6.57
2022-09-26T03:16:10.043Z,6.63
2022-09-26T03:19:20.906Z,6.57
2022-09-26T03:22:19.504Z,6.50
2022-09-26T03:25:18.915Z,6.60
2022-09-26T03:31:38.762Z,7.07
2022-09-26T03:34:28.815Z,7.47
2022-09-26T03:37:31.280Z,6.90
2022-09-26T03:43:55.610Z,7.20
2022-09-26T03:46:58.509Z,9.00
2022-09-26T03:49:31.269Z,7.43
2022-09-26T03:52:30.812Z,7.27
2022-09-26T03:55:16.918Z,7.00
2022-09-26T04:05:08.397Z,6.20
2022-09-26T04:07:54.200Z,6.53
2022-09-26T04:10:54.849Z,6.40
2022-09-26T04:13:52.315Z,6.60
2022-09-26T04:20:29.953Z,6.10
2022-09-26T04:23:31.978Z,6.20
2022-09-26T04:34:14.466Z,6.60
2022-09-26T04:37:38.506Z,5.77
2022-09-26T04:40:44.154Z,6.20
2022-09-26T04:43:30.796Z,6.30
2022-09-26T04:49:48.248Z,6.10
2022-09-26T04:52:27.844Z,6.20
2022-09-26T04:55:00.848Z,5.60
2022-09-26T04:57:56.670Z,6.17
2022-09-26T05:00:29.902Z,6.20
2022-09-26T05:03:19.123Z,6.30
2022-09-26T05:06:26.635Z,6.10
2022-09-26T05:09:22.032Z,6.10
2022-09-26T05:12:33.181Z,6.67
2022-09-26T05:15:48.016Z,6.10
2022-09-26T05:22:33.053Z,6.13
2022-09-26T05:25:22.883Z,6.70
2022-09-26T05:31:18.103Z,6.03
2022-09-26T05:33:57.602Z,5.87
2022-09-26T05:36:47.334Z,6.47
2022-09-26T05:40:24.055Z,6.00
2022-09-26T05:43:55.476Z,6.20
2022-09-26T05:47:09.013Z,5.90
2022-09-26T05:49:40.253Z,6.20
2022-09-26T06:02:48.384Z,5.67
2022-09-26T06:09:15.955Z,5.77
2022-09-26T06:12:55.518Z,6.60
2022-09-26T06:19:07.183Z,6.10
2022-09-26T06:22:16.313Z,6.40
2022-09-26T06:28:39.703Z,6.77
2022-09-26T06:31:48.188Z,6.97
2022-09-26T06:41:39.188Z,7.53
2022-09-26T06:44:56.972Z,6.50
2022-09-26T06:47:51.924Z,7.00
2022-09-26T06:50:55.016Z,8.00
2022-09-26T06:53:57.163Z,7.47
2022-09-26T06:57:35.679Z,7.10
2022-09-26T07:10:27.360Z,7.30
2022-09-26T07:13:51.773Z,7.40
2022-09-26T07:20:21.031Z,7.47
2022-09-26T07:24:02.185Z,6.80
2022-09-26T07:30:44.825Z,7.30
2022-09-26T07:43:22.353Z,7.50
2022-09-26T07:46:30.181Z,7.87
2022-09-26T07:53:36.746Z,7.10
2022-09-26T07:57:15.927Z,7.20
2022-09-26T08:00:23.423Z,7.70
2022-09-26T08:03:42.105Z,6.93
2022-09-26T08:06:29.980Z,6.63
2022-09-26T08:12:12.589Z,7.00
2022-09-26T08:15:25.409Z,6.17
2022-09-26T08:18:44.069Z,5.90
2022-09-26T08:22:01.675Z,7.10
2022-09-26T08:24:56.144Z,6.07
2022-09-26T08:30:56.226Z,5.50
2022-09-26T08:34:01.622Z,5.70
2022-09-26T08:37:14.097Z,5.07
2022-09-26T08:40:32.480Z,4.80
2022-09-26T08:43:55.878Z,5.33
2022-09-26T08:54:36.294Z,5.77
2022-09-26T09:11:33.312Z,4.37
2022-09-26T09:14:41.485Z,4.10
2022-09-26T09:17:25.742Z,5.23
2022-09-26T09:20:55.898Z,4.50
2022-09-26T09:24:15.470Z,4.57
2022-09-26T09:27:53.655Z,4.47
2022-09-26T09:35:35.777Z,3.83
2022-09-26T09:39:15.688Z,3.90
2022-09-26T09:43:00.176Z,4.83
2022-09-26T09:45:40.251Z,4.40
2022-09-26T09:48:29.023Z,4.40
2022-09-26T09:51:39.419Z,4.37
2022-09-26T09:54:41.079Z,4.47
2022-09-26T10:01:55.296Z,4.30
2022-09-26T10:05:12.534Z,3.90
2022-09-26T10:08:19.205Z,4.07
2022-09-26T10:16:14.968Z,3.73
2022-09-26T10:19:38.712Z,4.00
2022-09-26T10:26:46.468Z,4.10
2022-09-26T10:29:50.530Z,4.17
2022-09-26T10:32:56.290Z,4.30
2022-09-26T10:37:05.369Z,3.83
2022-09-26T10:58:40.143Z,4.37
2022-09-26T11:01:23.311Z,4.17
2022-09-26T11:05:10.746Z,3.80
2022-09-26T11:08:55.676Z,4.10
2022-09-26T11:12:09.835Z,3.83
2022-09-26T11:15:55.759Z,3.83
2022-09-26T11:18:42.091Z,3.93
2022-09-26T11:21:50.597Z,3.90
2022-09-26T11:25:19.546Z,3.83
2022-09-26T11:28:54.763Z,3.90
2022-09-26T11:32:01.586Z,3.70
2022-09-26T11:39:08.524Z,3.13
2022-09-26T11:42:32.122Z,3.40
2022-09-26T11:45:09.477Z,3.07
2022-09-26T11:48:27.231Z,3.20
2022-09-26T11:52:04.050Z,3.53
2022-09-26T11:55:03.784Z,2.70
2022-09-26T12:14:20.085Z,4.27
2022-09-26T12:20:50.740Z,2.90
2022-09-26T12:31:20.112Z,2.70
2022-09-26T12:34:35.737Z,2.97
2022-09-26T12:41:40.345Z,2.80
2022-09-26T12:45:05.600Z,3.00
2022-09-26T12:51:45.122Z,3.03
2022-09-26T12:55:01.047Z,3.00
2022-09-26T12:58:24.971Z,3.10
2022-09-26T13:08:27.396Z,3.00
2022-09-26T13:12:14.521Z,3.00
2022-09-26T13:15:54.432Z,2.70
2022-09-26T13:22:23.421Z,2.70
2022-09-26T13:29:18.192Z,2.80
2022-09-26T13:32:21.396Z,2.77
2022-09-26T13:39:47.600Z,2.50
2022-09-26T13:42:50.084Z,2.63
2022-09-26T13:45:33.863Z,2.80
2022-09-26T13:49:20.988Z,2.50
2022-09-26T13:52:05.993Z,2.60
2022-09-26T13:55:11.742Z,2.77
2022-09-26T14:01:18.778Z,2.13
2022-09-26T14:04:36.072Z,2.37
2022-09-26T14:07:29.447Z,2.43
2022-09-26T14:10:20.630Z,2.13
2022-09-26T14:13:57.925Z,2.30
2022-09-26T14:16:27.500Z,2.10
2022-09-26T14:19:07.977Z,2.40
2022-09-26T14:21:48.490Z,2.03
2022-09-26T14:24:41.082Z,2.20
2022-09-26T14:27:52.249Z,2.33
2022-09-26T14:30:41.431Z,1.90
2022-09-26T14:33:13.114Z,2.00
2022-09-26T14:35:54.875Z,1.80
2022-09-26T14:38:48.083Z,1.93
2022-09-26T14:41:21.606Z,1.93
2022-09-26T14:44:53.771Z,2.10
2022-09-26T14:47:56.875Z,2.00
2022-09-26T14:55:09.030Z,1.80
2022-09-26T14:58:42.135Z,1.83
2022-09-26T15:01:47.456Z,2.10
2022-09-26T15:04:33.851Z,1.80
2022-09-26T15:07:16.376Z,2.20
2022-09-26T15:10:03.256Z,1.90
2022-09-26T15:13:23.714Z,2.30
2022-09-26T15:16:21.299Z,2.40
2022-09-26T15:19:03.159Z,2.30
2022-09-26T15:21:45.131Z,2.40
2022-09-26T15:24:45.968Z,2.50
2022-09-26T15:27:46.068Z,2.37
2022-09-26T15:30:29.819Z,2.70
2022-09-26T15:35:54.944Z,2.77
2022-09-26T15:41:38.314Z,2.60
2022-09-26T15:44:28.054Z,2.73
2022-09-26T15:47:03.810Z,2.60
2022-09-26T15:49:39.921Z,2.57
2022-09-26T15:55:04.092Z,2.77
2022-09-26T15:57:34.018Z,2.90
2022-09-26T16:00:02.433Z,2.97
2022-09-26T16:02:36.519Z,2.73
2022-09-26T16:05:12.651Z,3.10
2022-09-26T16:10:36.887Z,2.83
2022-09-26T16:13:04.168Z,2.40
2022-09-26T16:15:38.094Z,3.00
2022-09-26T16:18:59.834Z,3.20
2022-09-26T16:30:22.144Z,2.57
2022-09-26T16:37:03.525Z,2.83
2022-09-26T16:44:27.543Z,2.50
2022-09-26T16:47:50.930Z,3.00
2022-09-26T16:50:52.253Z,2.97
2022-09-26T16:54:06.709Z,2.63
2022-09-26T16:57:16.275Z,3.57
2022-09-26T17:00:53.945Z,2.90
2022-09-26T17:03:40.368Z,2.80
2022-09-26T17:06:17.308Z,2.50
2022-09-26T17:09:08.004Z,2.50
2022-09-26T17:11:38.518Z,2.97
2022-09-26T17:14:19.637Z,2.50
2022-09-26T17:17:06.373Z,2.87
2022-09-26T17:20:33.023Z,2.30
2022-09-26T17:26:19.553Z,2.80
2022-09-26T17:29:00.703Z,2.77
2022-09-26T17:31:34.826Z,2.50
2022-09-26T17:34:21.014Z,3.27
2022-09-26T17:37:18.745Z,2.80
2022-09-26T17:41:17.025Z,2.93
2022-09-26T17:44:06.447Z,2.73
2022-09-26T17:46:47.000Z,3.13
2022-09-26T17:49:53.662Z,2.90
2022-09-26T17:52:35.262Z,2.93
2022-09-26T17:55:32.340Z,2.63
2022-09-26T17:58:10.805Z,2.70
2022-09-26T18:01:05.556Z,2.77
2022-09-26T18:03:54.783Z,2.60
2022-09-26T18:06:28.960Z,3.53
2022-09-26T18:15:25.635Z,3.23
2022-09-26T18:18:03.467Z,2.60
2022-09-26T18:20:39.373Z,2.93
2022-09-26T18:23:21.548Z,2.60
2022-09-26T18:26:21.534Z,2.73
2022-09-26T18:29:16.733Z,2.90
2022-09-26T18:32:15.325Z,3.10
2022-09-26T18:37:59.423Z,3.20
2022-09-26T18:41:18.749Z,2.80
2022-09-26T18:47:22.191Z,2.67
2022-09-26T18:53:48.018Z,2.93
2022-09-26T18:57:15.244Z,2.50
2022-09-26T19:00:33.979Z,2.80
2022-09-26T19:03:59.649Z,3.20
2022-09-26T19:10:34.870Z,3.00
2022-09-26T19:13:30.589Z,2.87
2022-09-26T19:16:38.376Z,3.37
2022-09-26T19:19:42.343Z,3.33
2022-09-26T19:26:24.442Z,3.10
2022-09-26T19:29:16.704Z,3.07
2022-09-26T19:31:47.325Z,2.80
2022-09-26T19:34:39.662Z,2.83
2022-09-26T19:37:14.069Z,2.77
2022-09-26T19:40:00.527Z,2.70
2022-09-26T19:45:47.575Z,3.00
2022-09-26T19:48:53.524Z,3.17
2022-09-26T19:51:53.210Z,2.87
2022-09-26T19:55:05.294Z,3.20
2022-09-26T19:58:10.843Z,2.70
2022-09-26T20:01:08.421Z,3.10
2022-09-26T20:04:15.595Z,2.97
2022-09-26T20:06:58.483Z,2.90
2022-09-26T20:09:59.157Z,2.63
2022-09-26T20:12:56.372Z,3.47
2022-09-26T20:15:27.252Z,2.80
2022-09-26T20:18:11.767Z,2.70
2022-09-26T20:21:17.111Z,2.80
2022-09-26T20:24:04.434Z,2.87
2022-09-26T20:30:58.940Z,2.90
2022-09-26T20:33:58.908Z,2.90
2022-09-26T20:37:28.595Z,2.70
2022-09-26T20:41:28.428Z,2.70
2022-09-26T20:44:09.626Z,2.83
2022-09-26T20:46:55.051Z,3.03
2022-09-26T20:52:32.680Z,2.50
2022-09-26T20:58:12.155Z,2.97
2022-09-26T21:00:42.232Z,3.00
2022-09-26T21:03:26.913Z,2.60
2022-09-26T21:06:06.141Z,2.70
2022-09-26T21:08:43.861Z,2.70
2022-09-26T21:11:26.738Z,2.73
2022-09-26T21:14:00.382Z,2.87
2022-09-26T21:16:37.854Z,2.87
2022-09-26T21:19:30.616Z,3.30
2022-09-26T21:22:21.902Z,2.90
2022-09-26T21:25:35.792Z,2.60
2022-09-26T21:29:06.002Z,2.73
2022-09-26T21:31:34.740Z,2.57
2022-09-26T21:34:02.059Z,2.60
2022-09-26T21:36:35.113Z,2.43
2022-09-26T21:39:37.786Z,2.57
2022-09-26T21:42:19.841Z,2.67
2022-09-26T21:45:01.420Z,2.70
2022-09-26T21:47:40.703Z,2.87
2022-09-26T21:50:30.230Z,2.57
2022-09-26T21:53:28.933Z,2.60
2022-09-26T21:59:20.853Z,2.50
2022-09-26T22:13:48.791Z,2.77
2022-09-26T22:16:47.898Z,2.67
2022-09-26T22:20:08.085Z,2.50
2022-09-26T22:22:40.458Z,2.47
2022-09-26T22:25:33.484Z,2.70
2022-09-26T22:28:03.116Z,3.10
2022-09-26T22:30:40.326Z,2.80
2022-09-26T22:33:15.931Z,3.00
2022-09-26T22:36:13.494Z,2.73
2022-09-26T22:38:45.110Z,2.97
2022-09-26T22:41:41.515Z,2.90
2022-09-26T22:44:12.851Z,3.33
2022-09-26T22:46:46.963Z,3.07
2022-09-26T22:49:33.656Z,3.00
2022-09-26T22:52:11.884Z,3.47
2022-09-26T22:54:41.248Z,3.60
2022-09-26T23:00:13.092Z,3.20
2022-09-26T23:05:34.481Z,4.50
2022-09-26T23:11:07.391Z,4.30
2022-09-26T23:13:49.905Z,4.43
2022-09-26T23:16:54.581Z,4.60
2022-09-26T23:22:07.932Z,5.70
2022-09-26T23:25:02.918Z,5.40
2022-09-26T23:27:29.624Z,5.47
2022-09-26T23:32:58.359Z,7.80
2022-09-26T23:35:38.361Z,7.97
2022-09-26T23:39:04.194Z,7.90
2022-09-26T23:41:49.049Z,7.30
2022-09-26T23:47:18.239Z,8.07
2022-09-26T23:50:00.298Z,9.10
2022-09-26T23:52:36.729Z,9.03
2022-09-26T23:55:34.082Z,9.70
2022-09-26T23:58:40.495Z,9.60
